KAEX

Alexandria/Louisiana

Airport
ICAO code
KAEX
IATA Code
AEX
Summary
ICAO Region
NAM
ICAO Territory
Location

Rapides Parish , Louisiana

Serving
Alexandria
Elevation
88 ft
Coordinates
31° 19' 38" N , 92° 32' 54" W
KCC
Metar
KAEX 181553Z 20014G18KT 9SM BKN021 OVC026 25/21 A3000 RMK AO2 SLP162 T02500211

Description

Alexandria International Airport is a public use airport located 4 nm west of the central business district of Alexandria, in Rapides Parish, Louisiana, United States.

Airport map

Aerial View

SKYbrary Partners:

Safety knowledge contributed by: